Time;durP1;ratioP1;P1;durP2;ratioP2;P2;SDS_P1;SDS_P2;PMS_P1;PMS_P2;Temp;Humidity;BMP_temperature;BMP_pressure;BME280_temperature;BME280_humidity;BME280_pressure;Samples;Min_cycle;Max_cycle;Signal;HPM_P1;HPM_P2
2023/04/04 00:01:40;;;;;;;;;;;0.60;1.00;;;;;;5076605;28;20299;-71
2023/04/04 00:04:06;;;;;;;;;;;0.60;1.00;;;;;;5076440;28;19935;-71
2023/04/04 00:06:31;;;;;;;;;;;0.50;1.00;;;;;;5075657;28;20345;-71
2023/04/04 00:08:57;;;;;;;;;;;0.50;1.00;;;;;;5076030;28;19915;-71
2023/04/04 00:11:23;;;;;;;;;;;0.50;1.00;;;;;;5076288;28;20272;-71
2023/04/04 00:13:54;;;;;;;;;;;0.40;1.00;;;;;;5078296;28;19954;-72
2023/04/04 00:16:21;;;;;;;;;;;0.40;1.00;;;;;;5090866;28;19943;-71
2023/04/04 00:18:48;;;;;;;;;;;0.40;1.00;;;;;;5076434;28;19904;-72
2023/04/04 00:21:14;;;;;;;;;;;0.30;1.00;;;;;;5076110;28;19961;-72
2023/04/04 00:23:39;;;;;;;;;;;0.30;1.00;;;;;;5075268;28;19916;-72
2023/04/04 00:26:05;;;;;;;;;;;0.30;1.00;;;;;;5077071;28;19931;-71
2023/04/04 00:28:31;;;;;;;;;;;0.30;1.00;;;;;;5076236;28;19939;-71
2023/04/04 00:30:56;;;;;;;;;;;0.20;1.00;;;;;;5075715;28;19908;-72
2023/04/04 00:33:22;;;;;;;;;;;0.20;1.00;;;;;;5081588;28;20311;-72
2023/04/04 00:35:48;;;;;;;;;;;0.20;1.00;;;;;;5078426;28;19908;-71
2023/04/04 00:38:18;;;;;;;;;;;0.20;1.00;;;;;;5077354;28;19908;-71
2023/04/04 00:41:00;;;;;;;;;;;0.20;1.00;;;;;;5081082;28;19908;-79
2023/04/04 00:43:54;;;;;;;;;;;0.20;1.00;;;;;;5075921;28;20279;-79
2023/04/04 00:46:36;;;;;;;;;;;0.10;1.00;;;;;;5058025;28;19909;-79
2023/04/04 00:49:02;;;;;;;;;;;0.10;1.00;;;;;;5080820;28;19904;-79
2023/04/04 00:51:31;;;;;;;;;;;0.10;1.00;;;;;;5075768;28;19912;-79
2023/04/04 00:54:12;;;;;;;;;;;0.10;1.00;;;;;;5079152;28;19908;-79
2023/04/04 00:56:38;;;;;;;;;;;0.00;1.00;;;;;;5090473;28;19910;-71
2023/04/04 00:59:04;;;;;;;;;;;0.00;1.00;;;;;;5075384;28;19908;-71
2023/04/04 01:01:31;;;;;;;;;;;0.00;1.00;;;;;;5089273;28;20457;-71
2023/04/04 01:03:57;;;;;;;;;;;0.00;1.00;;;;;;5094308;28;19912;-71
2023/04/04 01:06:23;;;;;;;;;;;0.00;1.00;;;;;;5092274;28;19912;-71
2023/04/04 01:08:50;;;;;;;;;;;0.00;1.00;;;;;;5074311;28;19939;-71
2023/04/04 01:11:15;;;;;;;;;;;-0.10;1.00;;;;;;5082162;28;19904;-71
2023/04/04 01:13:42;;;;;;;;;;;-0.10;1.00;;;;;;5076687;28;19908;-71
2023/04/04 01:16:07;;;;;;;;;;;-0.10;1.00;;;;;;5075265;28;20309;-71
2023/04/04 01:18:33;;;;;;;;;;;-0.10;1.00;;;;;;5080964;28;19908;-71
2023/04/04 01:21:06;;;;;;;;;;;-0.10;1.00;;;;;;5075292;28;20003;-72
2023/04/04 01:23:43;;;;;;;;;;;-0.10;1.00;;;;;;5079041;28;19920;-71
2023/04/04 01:26:20;;;;;;;;;;;-0.10;1.00;;;;;;5060071;28;19904;-79
2023/04/04 01:28:55;;;;;;;;;;;-0.10;1.00;;;;;;5090071;28;19908;-79
2023/04/04 01:31:42;;;;;;;;;;;-0.10;1.00;;;;;;5095249;28;19912;-79
2023/04/04 01:34:42;;;;;;;;;;;-0.10;1.00;;;;;;5095198;28;19916;-79
2023/04/04 01:37:17;;;;;;;;;;;-0.10;1.00;;;;;;5094114;28;19908;-79
2023/04/04 01:40:12;;;;;;;;;;;-0.20;1.00;;;;;;5091019;28;19911;-80
2023/04/04 01:42:43;;;;;;;;;;;-0.10;1.00;;;;;;5082449;28;20003;-71
2023/04/04 01:45:09;;;;;;;;;;;-0.10;1.00;;;;;;5074811;28;19904;-71
2023/04/04 01:47:41;;;;;;;;;;;-0.10;1.00;;;;;;5074063;28;20232;-71
2023/04/04 01:50:08;;;;;;;;;;;-0.10;1.00;;;;;;5088421;28;19908;-71
2023/04/04 01:52:34;;;;;;;;;;;-0.10;1.00;;;;;;5081247;28;20252;-71
2023/04/04 01:55:00;;;;;;;;;;;-0.10;1.00;;;;;;5091626;28;19923;-71
2023/04/04 01:57:30;;;;;;;;;;;-0.10;1.00;;;;;;5091484;28;19904;-79
2023/04/04 02:00:00;;;;;;;;;;;-0.20;1.00;;;;;;5074755;28;19911;-79
2023/04/04 02:02:30;;;;;;;;;;;-0.10;1.00;;;;;;5079951;28;19909;-79
2023/04/04 02:05:12;;;;;;;;;;;-0.10;1.00;;;;;;5074350;28;19908;-79
2023/04/04 02:07:46;;;;;;;;;;;-0.10;1.00;;;;;;5074105;28;19935;-79
2023/04/04 02:10:12;;;;;;;;;;;-0.10;1.00;;;;;;5094345;28;19950;-79
2023/04/04 02:13:00;;;;;;;;;;;-0.10;1.00;;;;;;5077415;28;19911;-79
2023/04/04 02:15:30;;;;;;;;;;;-0.10;1.00;;;;;;5094665;28;19911;-79
2023/04/04 02:18:06;;;;;;;;;;;-0.10;1.00;;;;;;5076160;28;19904;-79
2023/04/04 02:20:32;;;;;;;;;;;-0.10;1.00;;;;;;5075299;28;19923;-79
2023/04/04 02:23:12;;;;;;;;;;;-0.10;1.00;;;;;;5094399;28;19908;-79
2023/04/04 02:25:51;;;;;;;;;;;-0.10;1.00;;;;;;5094567;28;19953;-79
2023/04/04 02:28:18;;;;;;;;;;;-0.10;1.00;;;;;;5080773;28;19995;-71
2023/04/04 02:30:44;;;;;;;;;;;-0.10;1.00;;;;;;5094284;28;19915;-71
2023/04/04 02:33:09;;;;;;;;;;;-0.10;1.00;;;;;;5083957;28;19920;-71
2023/04/04 02:35:35;;;;;;;;;;;-0.10;1.00;;;;;;5073289;28;19951;-71
2023/04/04 02:38:01;;;;;;;;;;;-0.10;1.00;;;;;;5074228;28;19909;-71
2023/04/04 02:40:27;;;;;;;;;;;-0.10;1.00;;;;;;5074026;28;20057;-71
2023/04/04 02:42:54;;;;;;;;;;;-0.10;1.00;;;;;;5074671;28;20343;-79
2023/04/04 02:45:20;;;;;;;;;;;-0.10;1.00;;;;;;5074173;28;19916;-79
2023/04/04 02:47:54;;;;;;;;;;;-0.10;1.00;;;;;;5078755;28;19908;-79
2023/04/04 02:50:48;;;;;;;;;;;-0.10;1.00;;;;;;5098426;28;19951;-79
2023/04/04 02:53:14;;;;;;;;;;;-0.10;1.00;;;;;;5080619;28;19955;-79
2023/04/04 02:55:42;;;;;;;;;;;-0.10;1.00;;;;;;5080657;28;20013;-78
2023/04/04 02:58:08;;;;;;;;;;;-0.10;1.00;;;;;;5080581;28;19908;-71
2023/04/04 03:00:33;;;;;;;;;;;-0.10;1.00;;;;;;5082954;28;19938;-72
2023/04/04 03:02:59;;;;;;;;;;;-0.10;1.00;;;;;;5100670;28;19908;-71
2023/04/04 03:05:25;;;;;;;;;;;-0.10;1.00;;;;;;5099147;28;19908;-71
2023/04/04 03:07:55;;;;;;;;;;;-0.10;1.00;;;;;;5084224;28;19942;-72
2023/04/04 03:10:21;;;;;;;;;;;-0.20;1.00;;;;;;5080282;28;20362;-71
2023/04/04 03:12:47;;;;;;;;;;;-0.10;1.00;;;;;;5081047;28;19905;-79
2023/04/04 03:15:13;;;;;;;;;;;-0.10;1.00;;;;;;5080306;28;19904;-79
2023/04/04 03:17:48;;;;;;;;;;;-0.10;1.00;;;;;;5080604;28;19904;-79
2023/04/04 03:20:25;;;;;;;;;;;-0.10;1.00;;;;;;5080066;28;20485;-79
2023/04/04 03:22:54;;;;;;;;;;;-0.20;1.00;;;;;;5079999;28;20264;-79
2023/04/04 03:25:54;;;;;;;;;;;-0.20;1.00;;;;;;5080599;28;19931;-79
2023/04/04 03:28:25;;;;;;;;;;;-0.20;1.00;;;;;;5081406;28;19913;-71
2023/04/04 03:30:50;;;;;;;;;;;-0.20;1.00;;;;;;5080297;28;19908;-72
2023/04/04 03:33:16;;;;;;;;;;;-0.20;1.00;;;;;;5080133;28;19916;-71
2023/04/04 03:35:42;;;;;;;;;;;-0.20;1.00;;;;;;5082684;28;19908;-71
2023/04/04 03:38:08;;;;;;;;;;;-0.30;1.00;;;;;;5081490;28;19908;-71
2023/04/04 03:40:34;;;;;;;;;;;-0.30;1.00;;;;;;5080450;28;19908;-71
2023/04/04 03:43:07;;;;;;;;;;;-0.30;1.00;;;;;;5080702;28;19942;-79
2023/04/04 03:45:42;;;;;;;;;;;-0.40;1.00;;;;;;5080197;28;19938;-80
2023/04/04 03:48:18;;;;;;;;;;;-0.40;1.00;;;;;;5081936;28;19916;-79
2023/04/04 03:53:46;;;;;;;;;;;-0.40;1.00;;;;;;5080310;28;20038;-80
2023/04/04 03:56:12;;;;;;;;;;;-0.40;1.00;;;;;;5079664;28;19938;-79
2023/04/04 03:58:38;;;;;;;;;;;-0.40;1.00;;;;;;5084219;28;19930;-71
2023/04/04 04:01:03;;;;;;;;;;;-0.50;1.00;;;;;;5086534;28;19904;-71
2023/04/04 04:03:30;;;;;;;;;;;-0.50;1.00;;;;;;5096966;28;20016;-71
2023/04/04 04:05:56;;;;;;;;;;;-0.40;1.00;;;;;;5093651;28;19930;-71
2023/04/04 04:08:21;;;;;;;;;;;-0.50;1.00;;;;;;5094556;28;19908;-71
2023/04/04 04:10:47;;;;;;;;;;;-0.50;1.00;;;;;;5084405;28;19954;-71
2023/04/04 04:16:16;;;;;;;;;;;-0.50;1.00;;;;;;5096889;28;19992;-79
2023/04/04 04:19:01;;;;;;;;;;;-0.50;1.00;;;;;;5094266;28;19955;-79
2023/04/04 04:21:26;;;;;;;;;;;-0.60;1.00;;;;;;5073726;28;19904;-79
2023/04/04 04:23:52;;;;;;;;;;;-0.60;1.00;;;;;;5087058;28;19934;-79
2023/04/04 04:26:30;;;;;;;;;;;-0.60;1.00;;;;;;5092271;28;20033;-79
2023/04/04 04:28:56;;;;;;;;;;;-0.60;1.00;;;;;;5096874;28;19904;-71
2023/04/04 04:31:22;;;;;;;;;;;-0.60;1.00;;;;;;5091001;28;20284;-72
2023/04/04 04:33:48;;;;;;;;;;;-0.60;1.00;;;;;;5066180;28;20373;-71
2023/04/04 04:36:14;;;;;;;;;;;-0.60;1.00;;;;;;5076314;28;19908;-71
2023/04/04 04:38:40;;;;;;;;;;;0.00;1.00;;;;;;5085062;28;20371;-71
2023/04/04 04:41:05;;;;;;;;;;;-0.70;1.00;;;;;;5069665;28;19908;-71
2023/04/04 04:43:31;;;;;;;;;;;-0.70;1.00;;;;;;5076712;28;20316;-79
2023/04/04 04:46:00;;;;;;;;;;;-0.70;1.00;;;;;;5075923;28;19910;-80
2023/04/04 04:48:48;;;;;;;;;;;-0.70;1.00;;;;;;5079652;28;19908;-83
2023/04/04 04:51:18;;;;;;;;;;;-0.70;1.00;;;;;;5080236;28;19911;-85
2023/04/04 04:54:06;;;;;;;;;;;-0.80;1.00;;;;;;5082090;28;19908;-85
2023/04/04 04:56:36;;;;;;;;;;;-0.80;1.00;;;;;;5090008;28;19909;-84
2023/04/04 04:59:07;;;;;;;;;;;-0.70;1.00;;;;;;5095675;28;20330;-78
2023/04/04 05:01:33;;;;;;;;;;;-0.70;1.00;;;;;;5087698;28;19915;-77
2023/04/04 05:03:59;;;;;;;;;;;-0.70;1.00;;;;;;5091670;28;19915;-78
2023/04/04 05:06:49;;;;;;;;;;;-0.70;1.00;;;;;;5087640;28;20343;-78
2023/04/04 05:09:14;;;;;;;;;;;-0.70;1.00;;;;;;5089615;28;19918;-77
2023/04/04 05:11:40;;;;;;;;;;;-0.70;1.00;;;;;;5075148;28;20394;-77
2023/04/04 05:14:19;;;;;;;;;;;-0.70;1.00;;;;;;5075919;28;20054;-84
2023/04/04 05:19:55;;;;;;;;;;;-0.70;1.00;;;;;;5075930;28;19958;-84
2023/04/04 05:22:43;;;;;;;;;;;-0.60;1.00;;;;;;5095648;28;19908;-84
2023/04/04 05:25:30;;;;;;;;;;;-0.60;1.00;;;;;;5077307;28;19912;-84
2023/04/04 05:28:06;;;;;;;;;;;-0.50;1.00;;;;;;5075821;28;19965;-84
2023/04/04 05:30:37;;;;;;;;;;;-0.40;1.00;;;;;;5095546;28;19991;-78
2023/04/04 05:33:24;;;;;;;;;;;-0.40;1.00;;;;;;5084343;28;19916;-78
2023/04/04 05:36:00;;;;;;;;;;;-0.30;1.00;;;;;;5074949;28;19999;-78
2023/04/04 05:38:36;;;;;;;;;;;-0.30;1.00;;;;;;5074958;28;20364;-78
2023/04/04 05:41:18;;;;;;;;;;;-0.20;1.00;;;;;;5074569;28;19904;-77
2023/04/04 05:43:48;;;;;;;;;;;-0.20;1.00;;;;;;5095101;28;19999;-84
2023/04/04 05:46:14;;;;;;;;;;;-0.10;1.00;;;;;;5077046;28;20033;-84
2023/04/04 05:48:42;;;;;;;;;;;-0.10;1.00;;;;;;5080115;28;20368;-84
2023/04/04 05:51:12;;;;;;;;;;;0.00;1.00;;;;;;5073273;28;19916;-84
2023/04/04 05:53:48;;;;;;;;;;;0.00;1.00;;;;;;5090699;28;19904;-84
2023/04/04 05:56:30;;;;;;;;;;;0.10;1.00;;;;;;5082583;28;19951;-84
2023/04/04 05:59:12;;;;;;;;;;;0.20;1.00;;;;;;5075325;28;19905;-79
2023/04/04 06:02:00;;;;;;;;;;;0.20;1.00;;;;;;5074185;28;19954;-78
2023/04/04 06:04:30;;;;;;;;;;;0.30;1.00;;;;;;5074818;28;19908;-78
2023/04/04 06:07:30;;;;;;;;;;;0.40;1.00;;;;;;5074847;28;19904;-78
2023/04/04 06:10:00;;;;;;;;;;;0.50;1.00;;;;;;5074176;28;19908;-77
2023/04/04 06:12:54;;;;;;;;;;;0.60;1.00;;;;;;5081524;28;19933;-78
2023/04/04 06:21:36;;;;;;;;;;;1.00;1.00;;;;;;5076190;28;19916;-84
2023/04/04 06:27:07;;;;;;;;;;;1.30;1.00;;;;;;5074148;28;19910;-74
2023/04/04 06:29:33;;;;;;;;;;;1.40;1.00;;;;;;5074439;28;19912;-72
2023/04/04 06:31:58;;;;;;;;;;;1.60;1.00;;;;;;5073708;28;19915;-71
2023/04/04 06:34:24;;;;;;;;;;;1.70;1.00;;;;;;5091093;28;19916;-72
2023/04/04 06:36:50;;;;;;;;;;;1.80;1.00;;;;;;5088889;28;19958;-71
2023/04/04 06:39:16;;;;;;;;;;;2.00;1.00;;;;;;5082617;28;19912;-71
2023/04/04 06:41:41;;;;;;;;;;;2.10;1.00;;;;;;5078601;28;19932;-72
2023/04/04 06:44:13;;;;;;;;;;;2.20;1.00;;;;;;5082541;28;20277;-73
2023/04/04 06:46:43;;;;;;;;;;;2.30;1.00;;;;;;5073945;28;19927;-73
2023/04/04 06:49:12;;;;;;;;;;;2.50;1.00;;;;;;5079084;28;19956;-73
2023/04/04 06:51:49;;;;;;;;;;;2.60;1.00;;;;;;5076326;28;19938;-73
2023/04/04 06:54:18;;;;;;;;;;;2.70;1.00;;;;;;5093772;28;20372;-74
2023/04/04 06:56:54;;;;;;;;;;;2.80;1.00;;;;;;5084664;28;19908;-74
2023/04/04 06:59:24;;;;;;;;;;;2.90;1.00;;;;;;5089556;28;19913;-73
2023/04/04 07:01:50;;;;;;;;;;;3.10;1.00;;;;;;5074879;28;19957;-74
2023/04/04 07:04:18;;;;;;;;;;;3.20;1.00;;;;;;5083694;28;20364;-73
2023/04/04 07:06:48;;;;;;;;;;;3.20;1.00;;;;;;5094147;28;19908;-73
2023/04/04 07:09:14;;;;;;;;;;;3.30;1.00;;;;;;5079055;28;19904;-73
2023/04/04 07:11:39;;;;;;;;;;;3.40;1.00;;;;;;5073957;28;19904;-74
2023/04/04 07:14:05;;;;;;;;;;;3.60;1.00;;;;;;5085711;28;20294;-73
2023/04/04 07:16:31;;;;;;;;;;;3.70;1.00;;;;;;5083413;28;19931;-72
2023/04/04 07:18:56;;;;;;;;;;;3.80;1.00;;;;;;5073646;28;19997;-72
2023/04/04 07:21:22;;;;;;;;;;;4.00;1.00;;;;;;5073687;28;19967;-72
2023/04/04 07:23:54;;;;;;;;;;;4.10;1.00;;;;;;5073660;28;19961;-82
2023/04/04 07:26:20;;;;;;;;;;;4.20;1.00;;;;;;5073526;28;19911;-83
2023/04/04 07:28:45;;;;;;;;;;;4.20;1.00;;;;;;5072976;28;20334;-83
2023/04/04 07:31:11;;;;;;;;;;;4.40;1.00;;;;;;5080583;28;19994;-83
2023/04/04 07:33:37;;;;;;;;;;;4.30;1.00;;;;;;5073112;28;19909;-83
2023/04/04 07:36:02;;;;;;;;;;;4.40;1.00;;;;;;5076611;28;19912;-84
2023/04/04 07:38:28;;;;;;;;;;;4.50;1.00;;;;;;5076316;28;19936;-83
2023/04/04 07:40:54;;;;;;;;;;;4.60;1.00;;;;;;5076431;28;19958;-83
2023/04/04 07:43:20;;;;;;;;;;;4.70;1.00;;;;;;5076566;28;19908;-84
2023/04/04 07:45:45;;;;;;;;;;;4.80;1.00;;;;;;5083812;28;19915;-83
2023/04/04 07:48:11;;;;;;;;;;;5.50;1.00;;;;;;5077143;28;20394;-84
2023/04/04 07:50:36;;;;;;;;;;;4.90;1.00;;;;;;5076305;28;19912;-83
2023/04/04 07:53:02;;;;;;;;;;;4.90;1.00;;;;;;5058363;28;20336;-84
2023/04/04 07:55:27;;;;;;;;;;;5.00;1.00;;;;;;5058889;28;19904;-84
2023/04/04 07:57:55;;;;;;;;;;;5.10;1.00;;;;;;5070057;28;20440;-84
2023/04/04 08:00:21;;;;;;;;;;;5.10;1.00;;;;;;5063564;28;20002;-84
2023/04/04 08:02:53;;;;;;;;;;;5.10;1.00;;;;;;5092611;28;19911;-84
2023/04/04 08:05:19;;;;;;;;;;;5.20;1.00;;;;;;5078349;28;20486;-84
2023/04/04 08:07:45;;;;;;;;;;;5.80;1.00;;;;;;5078033;28;19904;-84
2023/04/04 08:10:10;;;;;;;;;;;5.20;1.00;;;;;;5078116;28;19908;-84
2023/04/04 08:12:37;;;;;;;;;;;5.30;1.00;;;;;;5078172;28;19927;-84
2023/04/04 08:15:02;;;;;;;;;;;5.80;1.00;;;;;;5094923;28;19911;-84
2023/04/04 08:17:28;;;;;;;;;;;5.20;1.00;;;;;;5061447;28;19954;-84
2023/04/04 08:19:54;;;;;;;;;;;5.30;1.00;;;;;;5075947;28;19904;-83
2023/04/04 08:22:25;;;;;;;;;;;5.40;1.00;;;;;;5075569;28;19904;-83
2023/04/04 08:24:51;;;;;;;;;;;5.40;1.00;;;;;;5075932;28;19942;-83
2023/04/04 08:27:16;;;;;;;;;;;6.50;1.00;;;;;;5089119;28;19904;-84
2023/04/04 08:29:44;;;;;;;;;;;5.30;1.00;;;;;;5091715;28;19915;-84
2023/04/04 08:32:09;;;;;;;;;;;5.40;1.00;;;;;;5076384;28;20002;-82
2023/04/04 08:34:35;;;;;;;;;;;5.50;1.00;;;;;;5057461;28;19963;-82
2023/04/04 08:37:00;;;;;;;;;;;5.60;1.00;;;;;;5075205;28;19912;-82
2023/04/04 08:39:26;;;;;;;;;;;5.60;1.00;;;;;;5075143;28;19905;-82
2023/04/04 08:42:01;;;;;;;;;;;5.60;1.00;;;;;;5075381;28;19950;-82
2023/04/04 08:44:27;;;;;;;;;;;5.70;1.00;;;;;;5077457;28;20322;-82
2023/04/04 08:46:53;;;;;;;;;;;5.80;1.00;;;;;;5095485;28;19952;-82
2023/04/04 08:49:20;;;;;;;;;;;5.90;1.00;;;;;;5095728;28;19904;-82
2023/04/04 08:51:47;;;;;;;;;;;6.00;1.00;;;;;;5095332;28;20374;-82
2023/04/04 08:54:13;;;;;;;;;;;6.00;1.00;;;;;;5076858;28;19904;-83
2023/04/04 08:56:39;;;;;;;;;;;7.00;1.00;;;;;;5077072;28;20370;-75
2023/04/04 08:59:04;;;;;;;;;;;5.90;1.00;;;;;;5081736;28;20072;-75
2023/04/04 09:01:30;;;;;;;;;;;6.00;1.00;;;;;;5095076;28;19911;-75
2023/04/04 09:03:56;;;;;;;;;;;7.60;1.00;;;;;;5095027;28;19908;-75
2023/04/04 09:06:22;;;;;;;;;;;6.70;1.00;;;;;;5095072;28;19904;-85
2023/04/04 09:08:48;;;;;;;;;;;7.20;1.00;;;;;;5093539;28;19954;-84
2023/04/04 09:11:15;;;;;;;;;;;6.40;1.00;;;;;;5095167;28;19904;-84
2023/04/04 09:13:43;;;;;;;;;;;7.90;1.00;;;;;;5082759;28;19913;-84
2023/04/04 09:16:08;;;;;;;;;;;6.50;1.00;;;;;;5075335;28;20053;-80
2023/04/04 09:18:42;;;;;;;;;;;6.60;1.00;;;;;;5074956;28;19948;-79
2023/04/04 09:21:09;;;;;;;;;;;6.70;1.00;;;;;;5089658;28;19908;-79
2023/04/04 09:23:43;;;;;;;;;;;6.80;1.00;;;;;;5096687;28;20313;-80
2023/04/04 09:26:31;;;;;;;;;;;6.80;1.00;;;;;;5089303;28;19908;-80
2023/04/04 09:29:00;;;;;;;;;;;6.90;1.00;;;;;;5093873;28;20374;-80
2023/04/04 09:31:30;;;;;;;;;;;7.00;1.00;;;;;;5095615;28;19908;-85
2023/04/04 09:33:57;;;;;;;;;;;7.10;1.00;;;;;;5077491;28;19912;-85
2023/04/04 09:39:31;;;;;;;;;;;7.20;1.00;;;;;;5116324;28;19920;-86
2023/04/04 09:42:13;;;;;;;;;;;7.30;1.00;;;;;;5059271;28;19908;-85
2023/04/04 09:44:55;;;;;;;;;;;7.40;1.00;;;;;;5070582;28;19918;-86
2023/04/04 09:47:29;;;;;;;;;;;7.30;1.00;;;;;;5076890;28;19930;-80
2023/04/04 09:53:00;;;;;;;;;;;7.40;1.00;;;;;;5090324;28;19911;-80
2023/04/04 09:55:36;;;;;;;;;;;7.40;1.00;;;;;;5075098;28;20364;-80
2023/04/04 09:58:16;;;;;;;;;;;7.40;1.00;;;;;;5086808;28;19903;-80
2023/04/04 10:00:47;;;;;;;;;;;7.50;1.00;;;;;;5075859;28;19905;-79
2023/04/04 10:03:38;;;;;;;;;;;10.30;1.00;;;;;;5074919;28;19931;-85
2023/04/04 10:06:19;;;;;;;;;;;7.50;1.00;;;;;;5094798;28;19915;-75
2023/04/04 10:08:48;;;;;;;;;;;7.50;1.00;;;;;;5095096;28;20390;-74
2023/04/04 10:11:27;;;;;;;;;;;7.70;1.00;;;;;;5073617;28;20329;-75
2023/04/04 10:13:53;;;;;;;;;;;7.90;1.00;;;;;;5080573;28;19908;-75
2023/04/04 10:16:18;;;;;;;;;;;8.00;1.00;;;;;;5094779;28;19953;-71
2023/04/04 10:18:44;;;;;;;;;;;8.00;1.00;;;;;;5075590;28;20340;-71
2023/04/04 10:21:10;;;;;;;1.70;1.60;;;8.10;1.00;;;;;;5083574;28;20348;-71
2023/04/04 10:23:37;;;;;;;1.50;1.40;;;8.10;1.00;;;;;;5078000;28;20301;-70
2023/04/04 10:26:03;;;;;;;2.03;1.70;;;8.20;1.00;;;;;;5077529;28;20205;-70
2023/04/04 10:28:28;;;;;;;4.23;1.80;;;8.20;1.00;;;;;;5081614;28;20493;-70
2023/04/04 10:31:08;;;;;;;3.00;1.67;;;8.10;1.00;;;;;;5079489;28;20178;-71
2023/04/04 10:33:45;;;;;;;2.30;1.77;;;8.10;1.00;;;;;;5081226;28;20183;-74
2023/04/04 10:36:26;;;;;;;4.60;1.70;;;8.10;1.00;;;;;;5077228;28;20436;-73
2023/04/04 10:39:13;;;;;;;1.83;1.70;;;8.10;1.00;;;;;;5089660;28;20420;-74
2023/04/04 10:41:40;;;;;;;3.67;2.10;;;8.10;1.00;;;;;;5083657;28;20429;-74
2023/04/04 10:44:20;;;;;;;2.23;1.90;;;8.20;1.00;;;;;;5073448;28;20452;-73
2023/04/04 10:46:50;;;;;;;2.07;1.87;;;8.30;1.00;;;;;;5076217;28;20915;-70
2023/04/04 10:49:17;;;;;;;2.37;1.90;;;8.30;1.00;;;;;;5075855;28;20417;-70
2023/04/04 10:51:43;;;;;;;1.70;1.60;;;8.20;1.00;;;;;;5081008;28;20464;-70
2023/04/04 10:54:10;;;;;;;7.50;1.70;;;8.30;1.00;;;;;;5081544;28;20505;-70
2023/04/04 10:56:36;;;;;;;4.23;1.47;;;8.40;1.00;;;;;;5086707;28;20183;-70
2023/04/04 10:59:12;;;;;;;2.00;1.50;;;8.50;1.00;;;;;;5084971;28;20429;-70
2023/04/04 11:02:01;;;;;;;1.70;1.60;;;8.50;1.00;;;;;;5079399;28;20439;-73
2023/04/04 11:04:37;;;;;;;1.90;1.80;;;8.40;1.00;;;;;;5084654;28;20456;-73
2023/04/04 11:07:05;;;;;;;3.10;1.50;;;8.50;1.00;;;;;;5093923;28;20388;-75
2023/04/04 11:09:59;;;;;;;3.27;1.63;;;8.60;1.00;;;;;;5078742;28;20409;-74
2023/04/04 11:12:33;;;;;;;2.13;1.93;;;8.60;1.00;;;;;;5077043;28;20432;-74
2023/04/04 11:15:13;;;;;;;2.10;1.53;;;8.70;1.00;;;;;;5077205;28;20429;-74
2023/04/04 11:17:48;;;;;;;2.17;1.73;;;8.70;1.00;;;;;;5077843;28;20401;-74
2023/04/04 11:20:34;;;;;;;1.67;1.57;;;8.80;1.00;;;;;;5077392;28;20459;-74
2023/04/04 11:23:21;;;;;;;1.80;1.63;;;8.80;1.00;;;;;;5083451;28;20734;-74
2023/04/04 11:26:13;;;;;;;1.73;1.30;;;8.80;1.00;;;;;;5097290;28;20408;-73
2023/04/04 11:28:45;;;;;;;2.00;1.73;;;8.70;1.00;;;;;;5097776;28;20367;-73
2023/04/04 11:31:16;;;;;;;3.67;2.00;;;8.80;1.00;;;;;;5097620;28;20462;-73
2023/04/04 11:34:01;;;;;;;1.60;1.50;;;8.90;1.00;;;;;;5091383;28;20460;-73
2023/04/04 11:36:40;;;;;;;2.87;1.60;;;9.00;1.00;;;;;;5077091;28;20368;-73
2023/04/04 11:39:32;;;;;;;4.50;1.50;;;9.10;1.00;;;;;;5076780;28;20428;-73
2023/04/04 11:42:12;;;;;;;4.17;1.63;;;9.20;1.00;;;;;;5076895;28;20358;-74
2023/04/04 11:45:33;;;;;;;7.60;1.50;;;9.30;1.00;;;;;;5090013;28;20546;-74
2023/04/04 11:48:00;;;;;;;4.00;1.80;;;9.40;1.00;;;;;;5013346;28;20470;-71
2023/04/04 11:50:44;;;;;;;2.00;1.90;;;9.40;1.00;;;;;;4996667;28;20771;-70
2023/04/04 11:53:11;;;;;;;13.33;2.37;;;9.50;1.00;;;;;;5007091;28;20472;-70
2023/04/04 11:55:46;;;;;;;5.10;1.40;;;9.50;1.00;;;;;;5003117;28;20514;-71
2023/04/04 11:58:15;;;;;;;3.03;1.73;;;9.60;1.00;;;;;;5010736;28;20419;-71
2023/04/04 12:00:42;;;;;;;1.63;1.53;;;9.60;1.00;;;;;;5005544;28;20441;-71
2023/04/04 12:03:11;;;;;;;1.80;1.70;;;9.80;1.00;;;;;;4995188;28;20952;-74
2023/04/04 12:05:43;;;;;;;10.53;2.03;;;9.80;1.00;;;;;;5009711;28;20447;-73
2023/04/04 12:08:14;;;;;;;1.50;1.40;;;9.80;1.00;;;;;;5014162;28;20434;-73
2023/04/04 12:10:56;;;;;;;5.13;1.97;;;9.90;1.00;;;;;;5015075;28;20487;-75
2023/04/04 12:13:30;;;;;;;2.40;1.80;;;9.80;1.00;;;;;;5014036;28;20519;-73
2023/04/04 12:16:02;;;;;;;2.20;2.00;;;9.90;1.00;;;;;;5014367;28;20399;-73
2023/04/04 12:18:56;;;;;;;1.80;1.70;;;9.90;1.00;;;;;;5015125;28;20373;-72
2023/04/04 12:21:23;;;;;;;2.33;1.67;;;10.00;1.00;;;;;;5032377;28;20431;-74
2023/04/04 12:23:49;;;;;;;3.73;2.33;;;9.90;1.00;;;;;;5087399;28;20804;-73
2023/04/04 12:26:28;;;;;;;4.83;2.37;;;9.80;1.00;;;;;;5076109;28;20413;-73
2023/04/04 12:28:56;;;;;;;1.90;1.77;;;9.90;1.00;;;;;;5076109;28;20397;-73
2023/04/04 12:31:40;;;;;;;2.43;1.90;;;9.90;1.00;;;;;;5079227;28;20822;-73
2023/04/04 12:34:07;;;;;;;5.10;2.20;;;9.80;1.00;;;;;;5077202;28;20502;-73
2023/04/04 12:36:38;;;;;;;3.97;1.77;;;9.80;1.00;;;;;;5083333;28;20433;-73
2023/04/04 12:39:10;;;;;;;2.20;2.10;;;9.80;1.00;;;;;;5076161;28;20369;-73
2023/04/04 12:42:01;;;;;;;10.47;2.00;;;9.90;1.00;;;;;;5075801;28;20394;-73
2023/04/04 12:44:31;;;;;;;1.70;1.60;;;10.00;1.00;;;;;;5075338;28;20808;-73
2023/04/04 12:47:03;;;;;;;4.27;2.30;;;10.10;1.00;;;;;;5095893;28;20397;-72
2023/04/04 12:49:38;;;;;;;4.23;2.10;;;10.30;1.00;;;;;;5108423;28;20402;-72
2023/04/04 12:52:06;;;;;;;4.47;2.47;;;10.30;1.00;;;;;;5090190;28;20425;-72
2023/04/04 12:54:37;;;;;;;3.60;2.40;;;10.20;1.00;;;;;;5081568;28;20494;-71
2023/04/04 12:57:04;;;;;;;2.60;2.20;;;10.30;1.00;;;;;;5080420;28;20588;-71
2023/04/04 12:59:33;;;;;;;2.60;2.10;;;10.30;1.00;;;;;;5090594;28;20414;-71
2023/04/04 13:02:06;;;;;;;3.27;2.50;;;10.40;1.00;;;;;;5087399;28;20420;-71
2023/04/04 13:04:32;;;;;;;4.00;2.30;;;10.50;1.00;;;;;;5077170;28;20475;-72
2023/04/04 13:07:31;;;;;;;3.47;2.40;;;10.70;1.00;;;;;;5087695;28;20395;-72
2023/04/04 13:10:01;;;;;;;5.57;1.77;;;10.80;1.00;;;;;;5075221;28;20476;-73
2023/04/04 13:12:55;;;;;;;4.03;2.10;;;10.90;1.00;;;;;;5075302;28;20400;-76
2023/04/04 13:15:49;;;;;;;2.50;2.20;;;11.00;1.00;;;;;;5076416;28;20391;-84
2023/04/04 13:18:32;;;;;;;4.10;2.47;;;11.10;1.00;;;;;;5076121;28;20421;-79
2023/04/04 13:21:01;;;;;;;2.60;2.40;;;11.00;1.00;;;;;;5080356;28;20402;-82
2023/04/04 13:23:43;;;;;;;2.93;2.60;;;11.20;1.00;;;;;;5094669;28;20562;-80
2023/04/04 13:26:13;;;;;;;2.67;2.47;;;11.00;1.00;;;;;;5093321;28;20465;-79
2023/04/04 13:28:43;;;;;;;3.30;2.20;;;11.00;1.00;;;;;;5062780;28;20916;-80
2023/04/04 13:31:14;;;;;;;4.20;3.10;;;11.00;1.00;;;;;;5075475;28;20499;-79
2023/04/04 13:34:13;;;;;;;2.23;2.07;;;10.90;1.00;;;;;;5084409;28;20928;-87
2023/04/04 13:40:00;;;;;;;2.70;2.50;;;10.90;1.00;;;;;;5085817;28;20404;-87
2023/04/04 13:43:19;;;;;;;4.70;2.43;;;11.00;1.00;;;;;;5075094;28;20390;-89
2023/04/04 13:49:49;;;;;;;2.17;1.93;;;11.00;1.00;;;;;;5075096;28;20486;-87
2023/04/04 13:52:15;;;;;;;2.40;2.20;;;11.00;1.00;;;;;;5057106;28;20463;-86
2023/04/04 13:54:43;;;;;;;2.80;2.50;;;11.10;1.00;;;;;;5087471;28;20396;-86
2023/04/04 13:57:43;;;;;;;5.70;2.63;;;11.20;1.00;;;;;;5081959;28;20191;-86
2023/04/04 14:03:37;;;;;;;2.70;2.53;;;11.40;1.00;;;;;;5074340;28;20441;-81
2023/04/04 14:06:03;;;;;;;3.10;2.30;;;11.40;1.00;;;;;;5073857;28;20464;-81
2023/04/04 14:08:29;;;;;;;2.10;1.90;;;11.40;1.00;;;;;;5081965;28;20539;-81
2023/04/04 14:11:02;;;;;;;4.23;2.80;;;11.40;1.00;;;;;;5078698;28;20175;-80
2023/04/04 14:13:37;;;;;;;4.53;2.70;;;11.30;1.00;;;;;;5072611;28;20391;-80
2023/04/04 14:16:13;;;;;;;2.60;2.40;;;11.20;1.00;;;;;;5073737;28;20420;-79
2023/04/04 14:18:43;;;;;;;2.47;2.27;;;11.30;1.00;;;;;;5074244;28;20473;-86
2023/04/04 14:27:53;;;;;;;3.00;2.57;;;11.60;1.00;;;;;;5074016;28;20498;-85
2023/04/04 14:30:23;;;;;;;2.90;2.60;;;11.60;1.00;;;;;;5056157;28;20420;-87
2023/04/04 14:33:13;;;;;;;2.47;2.33;;;11.60;1.00;;;;;;5057422;28;20216;-88
2023/04/04 14:35:49;;;;;;;4.03;2.40;;;11.70;1.00;;;;;;5076105;28;20931;-80
2023/04/04 14:38:19;;;;;;;5.00;2.43;;;11.70;1.00;;;;;;5093964;28;20359;-80
2023/04/04 14:41:07;;;;;;;4.40;2.30;;;11.60;1.00;;;;;;5093960;28;20388;-79
2023/04/04 14:43:43;;;;;;;2.63;2.37;;;11.60;1.00;;;;;;5078251;28;20453;-80
2023/04/04 14:46:19;;;;;;;3.20;2.90;;;11.60;1.00;;;;;;5073575;28;20381;-80
2023/04/04 14:49:13;;;;;;;4.43;2.57;;;11.60;1.00;;;;;;5073739;28;20439;-88
2023/04/04 14:52:07;;;;;;;2.57;2.37;;;11.60;1.00;;;;;;5074431;28;20367;-89
2023/04/04 14:55:01;;;;;;;3.83;2.50;;;11.50;1.00;;;;;;5075720;28;20444;-87
2023/04/04 15:01:25;;;;;;;2.80;2.60;;;11.50;1.00;;;;;;5073869;28;20757;-90
2023/04/04 15:04:13;;;;;;;2.73;2.37;;;11.80;1.00;;;;;;5060956;28;20438;-88
2023/04/04 15:06:43;;;;;;;4.40;2.80;;;12.40;1.00;;;;;;5066578;28;20399;-89
2023/04/04 15:12:31;;;;;;;2.27;2.17;;;14.40;1.00;;;;;;5094312;28;20939;-89
2023/04/04 15:15:49;;;;;;;2.60;2.40;;;15.60;1.00;;;;;;5096551;28;20465;-89
2023/04/04 15:18:55;;;;;;;3.50;2.50;;;17.00;1.00;;;;;;5067776;28;20180;-88
2023/04/04 15:21:27;;;;;;;4.00;2.53;;;17.40;1.00;;;;;;5073534;28;20374;-81
2023/04/04 15:23:55;;;;;;;3.83;2.80;;;18.10;1.00;;;;;;5055403;28;20539;-80